sensor_id;sensor_type;location;lat;lon;timestamp;pressure;altitude;pressure_sealevel;temperature;humidity
15229;BME280;7717;47.792;12.076;2023-02-26T00:01:15;95315.75;;;-0.01;nan
15229;BME280;7717;47.792;12.076;2023-02-26T00:03:42;95316.69;;;0.44;nan
15229;BME280;7717;47.792;12.076;2023-02-26T00:06:08;95319.22;;;0.44;nan
15229;BME280;7717;47.792;12.076;2023-02-26T00:08:34;95320.22;;;0.52;nan
15229;BME280;7717;47.792;12.076;2023-02-26T00:11:00;95306.91;;;0.18;nan
15229;BME280;7717;47.792;12.076;2023-02-26T00:13:28;95326.53;;;0.33;nan
15229;BME280;7717;47.792;12.076;2023-02-26T00:15:58;95326.41;;;0.27;nan
15229;BME280;7717;47.792;12.076;2023-02-26T00:18:24;95323.41;;;0.45;nan
15229;BME280;7717;47.792;12.076;2023-02-26T00:20:49;95329.28;;;0.44;nan
15229;BME280;7717;47.792;12.076;2023-02-26T00:23:15;95326.59;;;0.37;nan
15229;BME280;7717;47.792;12.076;2023-02-26T00:25:42;95333.38;;;0.39;nan
15229;BME280;7717;47.792;12.076;2023-02-26T00:28:08;95338.38;;;0.38;nan
15229;BME280;7717;47.792;12.076;2023-02-26T00:30:34;95329.94;;;0.35;nan
15229;BME280;7717;47.792;12.076;2023-02-26T00:33:00;95332.63;;;0.45;nan
15229;BME280;7717;47.792;12.076;2023-02-26T00:35:26;95352.09;;;0.52;nan
15229;BME280;7717;47.792;12.076;2023-02-26T00:37:56;95342.13;;;0.57;nan
15229;BME280;7717;47.792;12.076;2023-02-26T00:40:43;95345.75;;;0.71;nan
15229;BME280;7717;47.792;12.076;2023-02-26T00:43:15;95341.06;;;0.47;nan
15229;BME280;7717;47.792;12.076;2023-02-26T00:51:36;95345.72;;;0.27;nan
15229;BME280;7717;47.792;12.076;2023-02-26T00:54:07;95350.00;;;0.32;nan
15229;BME280;7717;47.792;12.076;2023-02-26T00:56:35;95351.53;;;0.26;nan
15229;BME280;7717;47.792;12.076;2023-02-26T00:59:01;95359.66;;;0.14;nan
15229;BME280;7717;47.792;12.076;2023-02-26T01:01:27;95362.38;;;0.23;nan
15229;BME280;7717;47.792;12.076;2023-02-26T01:03:52;95349.78;;;0.22;nan
15229;BME280;7717;47.792;12.076;2023-02-26T01:06:19;95354.50;;;0.08;nan
15229;BME280;7717;47.792;12.076;2023-02-26T01:08:52;95354.84;;;0.23;nan
15229;BME280;7717;47.792;12.076;2023-02-26T01:11:19;95346.31;;;0.16;nan
15229;BME280;7717;47.792;12.076;2023-02-26T01:13:44;95364.91;;;0.23;nan
15229;BME280;7717;47.792;12.076;2023-02-26T01:16:13;95351.19;;;0.09;nan
15229;BME280;7717;47.792;12.076;2023-02-26T01:18:47;95336.84;;;0.06;nan
15229;BME280;7717;47.792;12.076;2023-02-26T01:21:18;95349.91;;;0.28;nan
15229;BME280;7717;47.792;12.076;2023-02-26T01:23:50;95348.72;;;0.12;nan
15229;BME280;7717;47.792;12.076;2023-02-26T01:26:27;95362.28;;;0.18;nan
15229;BME280;7717;47.792;12.076;2023-02-26T01:28:54;95357.34;;;0.23;nan
15229;BME280;7717;47.792;12.076;2023-02-26T01:31:41;95363.13;;;0.17;nan
15229;BME280;7717;47.792;12.076;2023-02-26T01:36:51;95348.13;;;0.22;nan
15229;BME280;7717;47.792;12.076;2023-02-26T01:39:30;95354.44;;;0.05;nan
15229;BME280;7717;47.792;12.076;2023-02-26T01:42:27;95350.34;;;0.08;nan
15229;BME280;7717;47.792;12.076;2023-02-26T01:45:00;95344.38;;;0.05;nan
15229;BME280;7717;47.792;12.076;2023-02-26T01:47:47;95351.53;;;0.26;nan
15229;BME280;7717;47.792;12.076;2023-02-26T01:50:19;95351.66;;;0.30;nan
15229;BME280;7717;47.792;12.076;2023-02-26T01:55:21;95356.88;;;0.40;nan
15229;BME280;7717;47.792;12.076;2023-02-26T01:57:48;95352.56;;;0.34;nan
15229;BME280;7717;47.792;12.076;2023-02-26T02:00:17;95357.09;;;0.50;nan
15229;BME280;7717;47.792;12.076;2023-02-26T02:02:43;95358.53;;;0.38;nan
15229;BME280;7717;47.792;12.076;2023-02-26T02:05:19;95352.78;;;0.45;nan
15229;BME280;7717;47.792;12.076;2023-02-26T02:07:46;95356.94;;;0.43;nan
15229;BME280;7717;47.792;12.076;2023-02-26T02:10:12;95349.38;;;0.43;nan
15229;BME280;7717;47.792;12.076;2023-02-26T02:12:43;95351.25;;;0.12;nan
15229;BME280;7717;47.792;12.076;2023-02-26T02:15:41;95354.75;;;0.20;nan
15229;BME280;7717;47.792;12.076;2023-02-26T02:18:23;95356.41;;;0.18;nan
15229;BME280;7717;47.792;12.076;2023-02-26T02:23:39;95361.34;;;0.13;nan
15229;BME280;7717;47.792;12.076;2023-02-26T02:26:18;95369.94;;;0.23;nan
15229;BME280;7717;47.792;12.076;2023-02-26T02:32:09;95374.69;;;-0.26;nan
15229;BME280;7717;47.792;12.076;2023-02-26T02:34:52;95374.13;;;-0.15;nan
15229;BME280;7717;47.792;12.076;2023-02-26T02:37:31;95371.63;;;-0.14;nan
15229;BME280;7717;47.792;12.076;2023-02-26T02:42:46;95376.72;;;-0.46;nan
15229;BME280;7717;47.792;12.076;2023-02-26T02:45:28;95374.78;;;-0.23;nan
15229;BME280;7717;47.792;12.076;2023-02-26T02:48:05;95373.00;;;-0.27;nan
15229;BME280;7717;47.792;12.076;2023-02-26T02:50:40;95369.09;;;-0.15;nan
15229;BME280;7717;47.792;12.076;2023-02-26T02:53:17;95371.69;;;-0.46;nan
15229;BME280;7717;47.792;12.076;2023-02-26T02:55:51;95373.06;;;-0.24;nan
15229;BME280;7717;47.792;12.076;2023-02-26T02:58:22;95366.38;;;-0.23;nan
15229;BME280;7717;47.792;12.076;2023-02-26T03:00:53;95381.38;;;-0.28;nan
15229;BME280;7717;47.792;12.076;2023-02-26T03:03:42;95375.91;;;-0.10;nan
15229;BME280;7717;47.792;12.076;2023-02-26T03:06:09;95370.88;;;-0.10;nan
15229;BME280;7717;47.792;12.076;2023-02-26T03:08:38;95379.50;;;0.00;nan
15229;BME280;7717;47.792;12.076;2023-02-26T03:11:06;95368.75;;;0.07;nan
15229;BME280;7717;47.792;12.076;2023-02-26T03:13:31;95379.34;;;-0.08;nan
15229;BME280;7717;47.792;12.076;2023-02-26T03:24:13;95394.44;;;-0.41;nan
15229;BME280;7717;47.792;12.076;2023-02-26T03:26:56;95394.31;;;-0.46;nan
15229;BME280;7717;47.792;12.076;2023-02-26T03:29:49;95400.97;;;-0.13;nan
15229;BME280;7717;47.792;12.076;2023-02-26T03:32:30;95401.81;;;-0.14;nan
15229;BME280;7717;47.792;12.076;2023-02-26T03:37:57;95404.88;;;-0.26;nan
15229;BME280;7717;47.792;12.076;2023-02-26T03:40:31;95404.75;;;-0.30;nan
15229;BME280;7717;47.792;12.076;2023-02-26T03:43:03;95420.88;;;-0.22;nan
15229;BME280;7717;47.792;12.076;2023-02-26T03:45:32;95405.38;;;-0.41;nan
15229;BME280;7717;47.792;12.076;2023-02-26T03:48:00;95427.28;;;-0.35;nan
15229;BME280;7717;47.792;12.076;2023-02-26T03:50:31;95429.09;;;-0.29;nan
15229;BME280;7717;47.792;12.076;2023-02-26T03:53:00;95433.59;;;-0.16;nan
15229;BME280;7717;47.792;12.076;2023-02-26T03:55:41;95435.06;;;-0.26;nan
15229;BME280;7717;47.792;12.076;2023-02-26T03:58:09;95447.59;;;-0.27;nan
15229;BME280;7717;47.792;12.076;2023-02-26T04:00:35;95440.81;;;-0.30;nan
15229;BME280;7717;47.792;12.076;2023-02-26T04:05:37;95448.59;;;-0.54;nan
15229;BME280;7717;47.792;12.076;2023-02-26T04:08:05;95430.28;;;-0.50;nan
15229;BME280;7717;47.792;12.076;2023-02-26T04:13:22;95438.44;;;-0.57;nan
15229;BME280;7717;47.792;12.076;2023-02-26T04:15:47;95437.69;;;-0.55;nan
15229;BME280;7717;47.792;12.076;2023-02-26T04:18:13;95442.75;;;-0.53;nan
15229;BME280;7717;47.792;12.076;2023-02-26T04:20:38;95458.44;;;-0.62;nan
15229;BME280;7717;47.792;12.076;2023-02-26T04:23:03;95458.69;;;-0.52;nan
15229;BME280;7717;47.792;12.076;2023-02-26T04:25:29;95462.88;;;-0.53;nan
15229;BME280;7717;47.792;12.076;2023-02-26T04:27:55;95473.28;;;-0.38;nan
15229;BME280;7717;47.792;12.076;2023-02-26T04:30:20;95477.03;;;-0.55;nan
15229;BME280;7717;47.792;12.076;2023-02-26T04:32:46;95487.50;;;-0.40;nan
15229;BME280;7717;47.792;12.076;2023-02-26T04:35:11;95483.81;;;-0.52;nan
15229;BME280;7717;47.792;12.076;2023-02-26T04:37:37;95471.94;;;-0.88;nan
15229;BME280;7717;47.792;12.076;2023-02-26T04:40:03;95489.72;;;-0.50;nan
15229;BME280;7717;47.792;12.076;2023-02-26T04:42:29;95493.16;;;-0.48;nan
15229;BME280;7717;47.792;12.076;2023-02-26T04:44:54;95487.75;;;-0.62;nan
15229;BME280;7717;47.792;12.076;2023-02-26T04:47:20;95499.53;;;-0.60;nan
15229;BME280;7717;47.792;12.076;2023-02-26T04:49:45;95500.19;;;-0.67;nan
15229;BME280;7717;47.792;12.076;2023-02-26T04:52:11;95500.41;;;-0.59;nan
15229;BME280;7717;47.792;12.076;2023-02-26T04:54:39;95500.44;;;-0.58;nan
15229;BME280;7717;47.792;12.076;2023-02-26T04:57:05;95506.13;;;-0.63;nan
15229;BME280;7717;47.792;12.076;2023-02-26T04:59:31;95503.72;;;-0.60;nan
15229;BME280;7717;47.792;12.076;2023-02-26T05:01:56;95502.09;;;-0.58;nan
15229;BME280;7717;47.792;12.076;2023-02-26T05:04:21;95504.28;;;-0.69;nan
15229;BME280;7717;47.792;12.076;2023-02-26T05:06:47;95519.81;;;-0.53;nan
15229;BME280;7717;47.792;12.076;2023-02-26T05:09:12;95522.09;;;-0.61;nan
15229;BME280;7717;47.792;12.076;2023-02-26T05:11:38;95503.47;;;-0.69;nan
15229;BME280;7717;47.792;12.076;2023-02-26T05:14:03;95513.00;;;-0.88;nan
15229;BME280;7717;47.792;12.076;2023-02-26T05:16:28;95519.81;;;-0.84;nan
15229;BME280;7717;47.792;12.076;2023-02-26T05:18:54;95519.47;;;-0.96;nan
15229;BME280;7717;47.792;12.076;2023-02-26T05:21:19;95519.63;;;-0.90;nan
15229;BME280;7717;47.792;12.076;2023-02-26T05:23:46;95526.06;;;-1.00;nan
15229;BME280;7717;47.792;12.076;2023-02-26T05:26:11;95541.63;;;-0.83;nan
15229;BME280;7717;47.792;12.076;2023-02-26T05:28:37;95531.38;;;-1.18;nan
15229;BME280;7717;47.792;12.076;2023-02-26T05:31:02;95536.69;;;-1.09;nan
15229;BME280;7717;47.792;12.076;2023-02-26T05:33:28;95539.00;;;-1.15;nan
15229;BME280;7717;47.792;12.076;2023-02-26T05:35:53;95522.88;;;-1.23;nan
15229;BME280;7717;47.792;12.076;2023-02-26T05:38:19;95537.47;;;-1.10;nan
15229;BME280;7717;47.792;12.076;2023-02-26T05:40:44;95539.06;;;-1.13;nan
15229;BME280;7717;47.792;12.076;2023-02-26T05:43:10;95542.63;;;-1.05;nan
15229;BME280;7717;47.792;12.076;2023-02-26T05:45:35;95541.34;;;-0.92;nan
15229;BME280;7717;47.792;12.076;2023-02-26T05:48:01;95541.84;;;-1.04;nan
15229;BME280;7717;47.792;12.076;2023-02-26T05:50:26;95546.09;;;-1.01;nan
15229;BME280;7717;47.792;12.076;2023-02-26T05:52:52;95536.88;;;-1.02;nan
15229;BME280;7717;47.792;12.076;2023-02-26T05:55:18;95548.88;;;-1.21;nan
15229;BME280;7717;47.792;12.076;2023-02-26T05:57:43;95553.41;;;-1.09;nan
15229;BME280;7717;47.792;12.076;2023-02-26T06:00:09;95563.84;;;-1.24;nan
15229;BME280;7717;47.792;12.076;2023-02-26T06:02:35;95563.16;;;-1.46;nan
15229;BME280;7717;47.792;12.076;2023-02-26T06:05:00;95566.06;;;-1.33;nan
15229;BME280;7717;47.792;12.076;2023-02-26T06:07:26;95558.63;;;-1.57;nan
15229;BME280;7717;47.792;12.076;2023-02-26T06:09:51;95565.63;;;-1.47;nan
15229;BME280;7717;47.792;12.076;2023-02-26T06:12:17;95568.75;;;-1.27;nan
15229;BME280;7717;47.792;12.076;2023-02-26T06:14:42;95565.63;;;-1.47;nan
15229;BME280;7717;47.792;12.076;2023-02-26T06:17:08;95581.84;;;-1.37;nan
15229;BME280;7717;47.792;12.076;2023-02-26T06:19:33;95585.91;;;-1.41;nan
15229;BME280;7717;47.792;12.076;2023-02-26T06:21:58;95583.69;;;-1.32;nan
15229;BME280;7717;47.792;12.076;2023-02-26T06:24:24;95583.63;;;-1.33;nan
15229;BME280;7717;47.792;12.076;2023-02-26T06:26:49;95604.28;;;-1.42;nan
15229;BME280;7717;47.792;12.076;2023-02-26T06:29:15;95598.56;;;-1.64;nan
15229;BME280;7717;47.792;12.076;2023-02-26T06:31:43;95606.06;;;-1.65;nan
15229;BME280;7717;47.792;12.076;2023-02-26T06:34:09;95610.84;;;-1.46;nan
15229;BME280;7717;47.792;12.076;2023-02-26T06:36:34;95606.41;;;-1.27;nan
15229;BME280;7717;47.792;12.076;2023-02-26T06:38:59;95617.19;;;-1.31;nan
15229;BME280;7717;47.792;12.076;2023-02-26T06:41:25;95621.34;;;-1.32;nan
15229;BME280;7717;47.792;12.076;2023-02-26T06:43:50;95609.59;;;-1.05;nan
15229;BME280;7717;47.792;12.076;2023-02-26T06:46:16;95615.66;;;-0.99;nan
15229;BME280;7717;47.792;12.076;2023-02-26T06:48:41;95627.84;;;-0.55;nan
15229;BME280;7717;47.792;12.076;2023-02-26T06:51:06;95614.72;;;-1.02;nan
15229;BME280;7717;47.792;12.076;2023-02-26T06:53:32;95632.25;;;-1.04;nan
15229;BME280;7717;47.792;12.076;2023-02-26T06:55:58;95641.47;;;-1.04;nan
15229;BME280;7717;47.792;12.076;2023-02-26T06:58:23;95648.13;;;-1.05;nan
15229;BME280;7717;47.792;12.076;2023-02-26T07:00:49;95655.22;;;-1.19;nan
15229;BME280;7717;47.792;12.076;2023-02-26T07:03:15;95657.72;;;-1.19;nan
15229;BME280;7717;47.792;12.076;2023-02-26T07:05:42;95659.63;;;-1.12;nan
15229;BME280;7717;47.792;12.076;2023-02-26T07:08:08;95663.41;;;-1.24;nan
15229;BME280;7717;47.792;12.076;2023-02-26T07:10:35;95668.88;;;-0.83;nan
15229;BME280;7717;47.792;12.076;2023-02-26T07:13:00;95665.03;;;-0.72;nan
15229;BME280;7717;47.792;12.076;2023-02-26T07:15:26;95657.03;;;-0.60;nan
15229;BME280;7717;47.792;12.076;2023-02-26T07:17:52;95678.41;;;-0.17;nan
15229;BME280;7717;47.792;12.076;2023-02-26T07:20:17;95653.16;;;-0.20;nan
15229;BME280;7717;47.792;12.076;2023-02-26T07:22:43;95671.16;;;0.26;nan
15229;BME280;7717;47.792;12.076;2023-02-26T07:25:09;95655.91;;;0.20;nan
15229;BME280;7717;47.792;12.076;2023-02-26T07:27:35;95675.75;;;0.09;nan
15229;BME280;7717;47.792;12.076;2023-02-26T07:30:01;95674.66;;;0.31;nan
15229;BME280;7717;47.792;12.076;2023-02-26T07:32:27;95687.03;;;-0.07;nan
15229;BME280;7717;47.792;12.076;2023-02-26T07:34:52;95681.13;;;-0.38;nan
15229;BME280;7717;47.792;12.076;2023-02-26T07:37:18;95678.34;;;0.12;nan
15229;BME280;7717;47.792;12.076;2023-02-26T07:39:44;95685.09;;;0.13;nan
15229;BME280;7717;47.792;12.076;2023-02-26T07:42:09;95686.56;;;0.37;nan
15229;BME280;7717;47.792;12.076;2023-02-26T07:44:35;95687.06;;;0.25;nan
15229;BME280;7717;47.792;12.076;2023-02-26T07:47:00;95694.31;;;0.14;nan
15229;BME280;7717;47.792;12.076;2023-02-26T07:49:26;95689.91;;;1.02;nan
15229;BME280;7717;47.792;12.076;2023-02-26T07:51:51;95681.50;;;0.68;nan
15229;BME280;7717;47.792;12.076;2023-02-26T07:54:17;95684.38;;;1.17;nan
15229;BME280;7717;47.792;12.076;2023-02-26T07:56:43;95687.78;;;0.51;nan
15229;BME280;7717;47.792;12.076;2023-02-26T07:59:09;95688.66;;;1.21;nan
15229;BME280;7717;47.792;12.076;2023-02-26T08:01:35;95683.25;;;1.41;nan
15229;BME280;7717;47.792;12.076;2023-02-26T08:04:01;95684.59;;;1.65;nan
15229;BME280;7717;47.792;12.076;2023-02-26T08:06:27;95681.41;;;1.35;nan
15229;BME280;7717;47.792;12.076;2023-02-26T08:08:52;95697.16;;;0.57;nan
15229;BME280;7717;47.792;12.076;2023-02-26T08:11:18;95700.34;;;0.51;nan
15229;BME280;7717;47.792;12.076;2023-02-26T08:13:43;95697.06;;;0.87;nan
15229;BME280;7717;47.792;12.076;2023-02-26T08:16:08;95691.97;;;0.20;nan
15229;BME280;7717;47.792;12.076;2023-02-26T08:18:34;95708.91;;;0.26;nan
15229;BME280;7717;47.792;12.076;2023-02-26T08:20:59;95726.31;;;0.18;nan
15229;BME280;7717;47.792;12.076;2023-02-26T08:23:25;95734.34;;;0.35;nan
15229;BME280;7717;47.792;12.076;2023-02-26T08:25:59;95735.34;;;0.42;nan
15229;BME280;7717;47.792;12.076;2023-02-26T08:28:24;95727.34;;;0.55;nan
15229;BME280;7717;47.792;12.076;2023-02-26T08:30:52;95723.63;;;0.74;nan
15229;BME280;7717;47.792;12.076;2023-02-26T08:33:17;95720.44;;;1.15;nan
15229;BME280;7717;47.792;12.076;2023-02-26T08:35:43;95717.41;;;1.66;nan
15229;BME280;7717;47.792;12.076;2023-02-26T08:38:09;95716.97;;;2.25;nan
15229;BME280;7717;47.792;12.076;2023-02-26T08:40:34;95714.22;;;1.37;nan
15229;BME280;7717;47.792;12.076;2023-02-26T08:43:00;95730.91;;;1.68;nan
15229;BME280;7717;47.792;12.076;2023-02-26T08:45:25;95730.06;;;1.68;nan
15229;BME280;7717;47.792;12.076;2023-02-26T08:47:50;95726.19;;;2.23;nan
15229;BME280;7717;47.792;12.076;2023-02-26T08:50:18;95724.22;;;1.70;nan
15229;BME280;7717;47.792;12.076;2023-02-26T08:52:43;95735.59;;;1.89;nan
15229;BME280;7717;47.792;12.076;2023-02-26T08:55:09;95728.53;;;2.57;nan
15229;BME280;7717;47.792;12.076;2023-02-26T08:57:34;95721.59;;;2.94;nan
15229;BME280;7717;47.792;12.076;2023-02-26T09:00:00;95726.19;;;1.82;nan
15229;BME280;7717;47.792;12.076;2023-02-26T09:02:25;95764.66;;;1.37;nan
15229;BME280;7717;47.792;12.076;2023-02-26T09:04:53;95761.47;;;1.44;nan
15229;BME280;7717;47.792;12.076;2023-02-26T09:07:18;95768.91;;;1.04;nan
15229;BME280;7717;47.792;12.076;2023-02-26T09:09:44;95788.72;;;0.28;nan
15229;BME280;7717;47.792;12.076;2023-02-26T09:12:09;95789.28;;;0.20;nan
15229;BME280;7717;47.792;12.076;2023-02-26T09:14:34;95787.78;;;0.26;nan
15229;BME280;7717;47.792;12.076;2023-02-26T09:17:00;95779.63;;;0.65;nan
15229;BME280;7717;47.792;12.076;2023-02-26T09:19:25;95779.00;;;0.73;nan
15229;BME280;7717;47.792;12.076;2023-02-26T09:21:51;95757.53;;;0.87;nan
15229;BME280;7717;47.792;12.076;2023-02-26T09:24:16;95793.09;;;0.35;nan
15229;BME280;7717;47.792;12.076;2023-02-26T09:26:42;95805.09;;;-0.13;nan
15229;BME280;7717;47.792;12.076;2023-02-26T09:29:07;95813.84;;;-0.01;nan
15229;BME280;7717;47.792;12.076;2023-02-26T09:31:32;95810.13;;;0.15;nan
15229;BME280;7717;47.792;12.076;2023-02-26T09:33:58;95815.06;;;0.41;nan
15229;BME280;7717;47.792;12.076;2023-02-26T09:36:23;95822.13;;;0.83;nan
15229;BME280;7717;47.792;12.076;2023-02-26T09:38:48;95803.47;;;1.08;nan
15229;BME280;7717;47.792;12.076;2023-02-26T09:41:38;95808.03;;;1.23;nan
15229;BME280;7717;47.792;12.076;2023-02-26T09:44:09;95800.28;;;1.16;nan
15229;BME280;7717;47.792;12.076;2023-02-26T09:51:33;95781.84;;;2.29;nan
15229;BME280;7717;47.792;12.076;2023-02-26T09:54:02;95801.00;;;2.61;nan
15229;BME280;7717;47.792;12.076;2023-02-26T09:56:33;95800.50;;;2.77;nan
15229;BME280;7717;47.792;12.076;2023-02-26T09:59:01;95801.53;;;2.05;nan
15229;BME280;7717;47.792;12.076;2023-02-26T10:01:33;95816.16;;;1.82;nan
15229;BME280;7717;47.792;12.076;2023-02-26T10:07:42;95808.19;;;2.01;nan
15229;BME280;7717;47.792;12.076;2023-02-26T10:12:54;95793.06;;;3.32;nan
15229;BME280;7717;47.792;12.076;2023-02-26T10:15:21;95786.97;;;3.73;nan
15229;BME280;7717;47.792;12.076;2023-02-26T10:17:56;95793.41;;;3.52;nan
15229;BME280;7717;47.792;12.076;2023-02-26T10:20:54;95794.97;;;2.97;nan
15229;BME280;7717;47.792;12.076;2023-02-26T10:32:11;95801.47;;;2.41;nan
15229;BME280;7717;47.792;12.076;2023-02-26T10:34:50;95792.03;;;3.73;nan
15229;BME280;7717;47.792;12.076;2023-02-26T10:37:27;95773.69;;;6.53;nan
15229;BME280;7717;47.792;12.076;2023-02-26T10:40:16;95740.13;;;5.64;nan
15229;BME280;7717;47.792;12.076;2023-02-26T10:50:49;95792.25;;;3.87;nan
15229;BME280;7717;47.792;12.076;2023-02-26T10:53:14;95773.72;;;4.52;nan
15229;BME280;7717;47.792;12.076;2023-02-26T10:58:17;95753.78;;;5.83;nan
15229;BME280;7717;47.792;12.076;2023-02-26T11:00:49;95713.63;;;5.31;nan
15229;BME280;7717;47.792;12.076;2023-02-26T11:05:45;95781.63;;;3.54;nan
15229;BME280;7717;47.792;12.076;2023-02-26T11:08:22;95751.53;;;3.73;nan
15229;BME280;7717;47.792;12.076;2023-02-26T11:10:58;95760.75;;;3.68;nan
15229;BME280;7717;47.792;12.076;2023-02-26T11:13:27;95801.53;;;2.87;nan
15229;BME280;7717;47.792;12.076;2023-02-26T11:15:55;95801.41;;;2.38;nan
15229;BME280;7717;47.792;12.076;2023-02-26T11:18:27;95804.00;;;2.03;nan
15229;BME280;7717;47.792;12.076;2023-02-26T11:20:57;95818.50;;;1.74;nan
15229;BME280;7717;47.792;12.076;2023-02-26T11:23:26;95816.69;;;2.06;nan
15229;BME280;7717;47.792;12.076;2023-02-26T11:26:14;95815.63;;;2.33;nan
15229;BME280;7717;47.792;12.076;2023-02-26T11:28:49;95822.34;;;2.74;nan
15229;BME280;7717;47.792;12.076;2023-02-26T11:31:20;95839.59;;;2.52;nan
15229;BME280;7717;47.792;12.076;2023-02-26T11:33:51;95841.66;;;2.72;nan
15229;BME280;7717;47.792;12.076;2023-02-26T11:36:21;95832.75;;;2.91;nan
15229;BME280;7717;47.792;12.076;2023-02-26T11:38:57;95831.19;;;3.43;nan
15229;BME280;7717;47.792;12.076;2023-02-26T11:41:24;95829.19;;;3.23;nan
15229;BME280;7717;47.792;12.076;2023-02-26T11:44:00;95832.84;;;2.52;nan
15229;BME280;7717;47.792;12.076;2023-02-26T11:46:27;95843.84;;;2.96;nan
15229;BME280;7717;47.792;12.076;2023-02-26T11:48:54;95817.72;;;3.42;nan
15229;BME280;7717;47.792;12.076;2023-02-26T11:51:24;95747.16;;;5.97;nan
15229;BME280;7717;47.792;12.076;2023-02-26T11:53:54;95705.81;;;8.57;nan
15229;BME280;7717;47.792;12.076;2023-02-26T11:56:34;95751.06;;;7.66;nan
15229;BME280;7717;47.792;12.076;2023-02-26T11:59:16;95803.69;;;7.68;nan
15229;BME280;7717;47.792;12.076;2023-02-26T12:01:42;95817.75;;;5.38;nan
15229;BME280;7717;47.792;12.076;2023-02-26T12:04:10;95814.50;;;5.52;nan
15229;BME280;7717;47.792;12.076;2023-02-26T12:06:36;95819.03;;;5.87;nan
15229;BME280;7717;47.792;12.076;2023-02-26T12:09:02;95739.16;;;7.46;nan
15229;BME280;7717;47.792;12.076;2023-02-26T12:23:01;95685.94;;;9.12;nan
15229;BME280;7717;47.792;12.076;2023-02-26T12:25:56;95765.03;;;9.21;nan
15229;BME280;7717;47.792;12.076;2023-02-26T12:34:36;95628.88;;;10.73;nan
15229;BME280;7717;47.792;12.076;2023-02-26T12:43:08;95791.75;;;7.19;nan
15229;BME280;7717;47.792;12.076;2023-02-26T12:46:03;95705.00;;;8.40;nan
15229;BME280;7717;47.792;12.076;2023-02-26T12:48:38;95681.66;;;9.12;nan
15229;BME280;7717;47.792;12.076;2023-02-26T12:51:34;95630.22;;;9.57;nan
15229;BME280;7717;47.792;12.076;2023-02-26T12:57:23;95598.53;;;13.20;nan
15229;BME280;7717;47.792;12.076;2023-02-26T13:08:55;95864.03;;;5.97;nan
15229;BME280;7717;47.792;12.076;2023-02-26T13:11:40;95877.09;;;5.50;nan
15229;BME280;7717;47.792;12.076;2023-02-26T13:17:05;95860.38;;;4.28;nan
15229;BME280;7717;47.792;12.076;2023-02-26T13:19:45;95875.41;;;3.16;nan
15229;BME280;7717;47.792;12.076;2023-02-26T13:24:53;95870.41;;;1.99;nan
15229;BME280;7717;47.792;12.076;2023-02-26T13:27:24;95867.88;;;1.99;nan
15229;BME280;7717;47.792;12.076;2023-02-26T13:30:05;95865.09;;;2.25;nan
15229;BME280;7717;47.792;12.076;2023-02-26T13:32:38;95873.59;;;1.92;nan
15229;BME280;7717;47.792;12.076;2023-02-26T13:35:17;95882.25;;;1.67;nan
15229;BME280;7717;47.792;12.076;2023-02-26T13:37:50;95869.47;;;2.32;nan
15229;BME280;7717;47.792;12.076;2023-02-26T13:51:07;95787.25;;;6.49;nan
15229;BME280;7717;47.792;12.076;2023-02-26T14:04:53;95860.53;;;3.82;nan
15229;BME280;7717;47.792;12.076;2023-02-26T14:08:07;95867.22;;;3.78;nan
15229;BME280;7717;47.792;12.076;2023-02-26T14:13:20;95870.50;;;2.42;nan
15229;BME280;7717;47.792;12.076;2023-02-26T14:16:21;95876.91;;;1.56;nan
15229;BME280;7717;47.792;12.076;2023-02-26T14:21:49;95885.22;;;0.88;nan
15229;BME280;7717;47.792;12.076;2023-02-26T14:24:24;95860.38;;;1.00;nan
15229;BME280;7717;47.792;12.076;2023-02-26T14:29:40;95871.22;;;1.98;nan
15229;BME280;7717;47.792;12.076;2023-02-26T14:34:45;95862.69;;;3.13;nan
15229;BME280;7717;47.792;12.076;2023-02-26T14:37:14;95877.47;;;2.93;nan
15229;BME280;7717;47.792;12.076;2023-02-26T14:39:45;95883.69;;;2.66;nan
15229;BME280;7717;47.792;12.076;2023-02-26T14:42:17;95879.75;;;3.25;nan
15229;BME280;7717;47.792;12.076;2023-02-26T14:44:47;95877.03;;;3.13;nan
15229;BME280;7717;47.792;12.076;2023-02-26T14:47:14;95861.69;;;4.03;nan
15229;BME280;7717;47.792;12.076;2023-02-26T14:49:43;95863.38;;;4.60;nan
15229;BME280;7717;47.792;12.076;2023-02-26T14:52:18;95850.72;;;4.63;nan
15229;BME280;7717;47.792;12.076;2023-02-26T14:55:19;95903.66;;;2.18;nan
15229;BME280;7717;47.792;12.076;2023-02-26T14:58:10;95917.94;;;1.82;nan
15229;BME280;7717;47.792;12.076;2023-02-26T15:03:42;95934.50;;;1.08;nan
15229;BME280;7717;47.792;12.076;2023-02-26T15:06:42;95944.22;;;0.66;nan
15229;BME280;7717;47.792;12.076;2023-02-26T15:09:30;95946.31;;;0.25;nan
15229;BME280;7717;47.792;12.076;2023-02-26T15:12:13;95951.44;;;0.01;nan
15229;BME280;7717;47.792;12.076;2023-02-26T15:17:46;95953.25;;;-0.21;nan
15229;BME280;7717;47.792;12.076;2023-02-26T15:25:31;95944.41;;;1.02;nan
15229;BME280;7717;47.792;12.076;2023-02-26T15:27:59;95955.31;;;1.01;nan
15229;BME280;7717;47.792;12.076;2023-02-26T15:30:26;95949.94;;;0.90;nan
15229;BME280;7717;47.792;12.076;2023-02-26T15:32:58;95967.81;;;0.98;nan
15229;BME280;7717;47.792;12.076;2023-02-26T15:35:26;95983.13;;;0.48;nan
15229;BME280;7717;47.792;12.076;2023-02-26T15:37:53;95979.09;;;0.53;nan
15229;BME280;7717;47.792;12.076;2023-02-26T15:40:20;95967.38;;;0.83;nan
15229;BME280;7717;47.792;12.076;2023-02-26T15:42:49;95952.81;;;0.73;nan
15229;BME280;7717;47.792;12.076;2023-02-26T15:47:48;95968.28;;;0.85;nan
15229;BME280;7717;47.792;12.076;2023-02-26T15:50:16;95976.31;;;0.73;nan
15229;BME280;7717;47.792;12.076;2023-02-26T15:52:42;95960.84;;;0.89;nan
15229;BME280;7717;47.792;12.076;2023-02-26T15:55:13;95961.78;;;0.93;nan
15229;BME280;7717;47.792;12.076;2023-02-26T15:57:40;95950.25;;;0.71;nan
15229;BME280;7717;47.792;12.076;2023-02-26T16:00:09;95946.22;;;1.06;nan
15229;BME280;7717;47.792;12.076;2023-02-26T16:02:35;95956.72;;;1.22;nan
15229;BME280;7717;47.792;12.076;2023-02-26T16:05:02;95963.06;;;1.38;nan
15229;BME280;7717;47.792;12.076;2023-02-26T16:07:28;95962.63;;;1.22;nan
15229;BME280;7717;47.792;12.076;2023-02-26T16:09:55;95963.13;;;1.11;nan
15229;BME280;7717;47.792;12.076;2023-02-26T16:12:33;95958.66;;;1.31;nan
15229;BME280;7717;47.792;12.076;2023-02-26T16:15:03;95965.44;;;1.33;nan
15229;BME280;7717;47.792;12.076;2023-02-26T16:17:32;95970.41;;;1.01;nan
15229;BME280;7717;47.792;12.076;2023-02-26T16:20:02;95966.97;;;0.98;nan
15229;BME280;7717;47.792;12.076;2023-02-26T16:22:34;95975.38;;;0.69;nan